createdAt,value
2019-05-09T00:01:14.002Z,21.40
2019-05-09T00:06:19.258Z,21.40
2019-05-09T00:11:25.161Z,21.40
2019-05-09T00:16:30.653Z,21.40
2019-05-09T00:21:43.140Z,21.40
2019-05-09T00:26:48.370Z,21.40
2019-05-09T00:32:13.724Z,21.40
2019-05-09T00:37:21.044Z,21.40
2019-05-09T00:42:26.822Z,21.40
2019-05-09T00:47:33.040Z,21.30
2019-05-09T00:52:38.705Z,21.40
2019-05-09T00:57:45.668Z,21.40
2019-05-09T01:02:54.029Z,21.40
2019-05-09T01:07:58.916Z,21.40
2019-05-09T01:13:04.901Z,21.40
2019-05-09T01:18:10.433Z,21.40
2019-05-09T01:23:16.247Z,21.30
2019-05-09T01:28:23.201Z,21.40
2019-05-09T01:33:53.948Z,21.40
2019-05-09T01:38:59.710Z,21.40
2019-05-09T01:44:05.403Z,21.40
2019-05-09T01:49:13.668Z,21.30
2019-05-09T01:54:20.835Z,21.30
2019-05-09T01:59:26.582Z,21.30
2019-05-09T02:04:33.885Z,21.30
2019-05-09T02:09:43.315Z,21.30
2019-05-09T02:15:05.200Z,21.30
2019-05-09T02:20:10.788Z,21.20
2019-05-09T02:25:17.036Z,21.20
2019-05-09T02:30:25.317Z,21.20
2019-05-09T02:35:38.819Z,21.20
2019-05-09T02:40:39.395Z,21.10
2019-05-09T02:45:59.516Z,21.10
2019-05-09T02:51:05.010Z,21.10
2019-05-09T02:56:11.740Z,21.10
2019-05-09T03:01:39.096Z,21.00
2019-05-09T03:06:43.860Z,21.00
2019-05-09T03:11:49.444Z,21.00
2019-05-09T03:16:55.015Z,20.90
2019-05-09T03:22:08.745Z,20.90
2019-05-09T03:27:20.153Z,20.90
2019-05-09T03:32:29.413Z,20.90
2019-05-09T03:37:33.215Z,20.80
2019-05-09T03:42:43.605Z,20.80
2019-05-09T03:47:54.637Z,20.80
2019-05-09T03:53:00.658Z,20.80
2019-05-09T03:58:18.603Z,20.80
2019-05-09T04:03:24.405Z,20.70
2019-05-09T04:08:29.980Z,20.70
2019-05-09T04:13:44.167Z,20.70
2019-05-09T04:18:51.592Z,20.70
2019-05-09T04:23:58.485Z,20.60
2019-05-09T04:29:04.235Z,20.60
2019-05-09T04:34:10.019Z,20.60
2019-05-09T04:39:23.137Z,20.70
2019-05-09T04:44:57.428Z,20.70
2019-05-09T04:49:59.468Z,20.70
2019-05-09T04:55:07.744Z,20.80
2019-05-09T05:00:14.528Z,20.80
2019-05-09T05:05:20.208Z,20.80
2019-05-09T05:10:27.336Z,20.70
2019-05-09T05:15:32.900Z,20.70
2019-05-09T05:20:38.821Z,20.70
2019-05-09T05:25:47.582Z,20.70
2019-05-09T05:30:53.341Z,20.70
2019-05-09T05:36:00.905Z,20.70
2019-05-09T05:41:07.995Z,20.70
2019-05-09T05:46:38.642Z,20.70
2019-05-09T05:51:50.543Z,20.60
2019-05-09T05:56:57.802Z,20.60
2019-05-09T06:02:03.810Z,20.50
2019-05-09T06:07:09.423Z,20.40
2019-05-09T06:12:15.507Z,20.40
2019-05-09T06:17:21.226Z,20.30
2019-05-09T06:22:27.560Z,20.20
2019-05-09T06:27:33.353Z,20.10
2019-05-09T06:32:39.052Z,20.10
2019-05-09T06:37:44.677Z,20.00
2019-05-09T06:42:50.219Z,20.10
2019-05-09T06:47:58.287Z,20.00
2019-05-09T06:53:03.428Z,19.90
2019-05-09T06:58:47.979Z,19.80
2019-05-09T07:03:57.570Z,19.80
2019-05-09T07:09:25.130Z,19.70
2019-05-09T07:14:41.838Z,19.70
2019-05-09T07:19:48.758Z,19.60
2019-05-09T07:25:18.428Z,19.50
2019-05-09T07:30:42.460Z,19.50
2019-05-09T07:35:48.258Z,19.40
2019-05-09T07:40:53.828Z,19.30
2019-05-09T07:46:08.876Z,19.30
2019-05-09T07:51:15.042Z,19.20
2019-05-09T07:56:21.820Z,19.20
2019-05-09T08:01:28.188Z,19.20
2019-05-09T08:06:35.057Z,19.10
2019-05-09T08:11:41.282Z,19.10
2019-05-09T08:16:47.628Z,19.20
2019-05-09T08:21:53.476Z,19.20
2019-05-09T08:26:59.038Z,19.20
2019-05-09T08:32:04.596Z,19.20
2019-05-09T08:37:12.591Z,19.20
2019-05-09T08:42:17.987Z,19.20
2019-05-09T08:47:24.556Z,19.10
2019-05-09T08:52:30.212Z,19.10
2019-05-09T08:57:37.552Z,19.10
2019-05-09T09:02:42.821Z,19.20
2019-05-09T09:07:49.178Z,19.20
2019-05-09T09:12:54.917Z,19.20
2019-05-09T09:18:00.402Z,19.30
2019-05-09T09:23:08.568Z,19.20
2019-05-09T09:28:13.444Z,19.30
2019-05-09T09:33:19.005Z,19.30
2019-05-09T09:38:24.553Z,19.30
2019-05-09T09:43:30.235Z,19.30
2019-05-09T09:48:38.651Z,19.40
2019-05-09T09:53:43.235Z,19.50
2019-05-09T09:58:57.696Z,19.50
2019-05-09T10:04:18.634Z,19.50
2019-05-09T10:09:14.366Z,19.60
2019-05-09T10:14:24.785Z,19.60
2019-05-09T10:19:48.469Z,19.60
2019-05-09T10:24:54.100Z,19.60
2019-05-09T10:29:59.697Z,19.60
2019-05-09T10:35:05.416Z,19.70
2019-05-09T10:40:14.976Z,19.70
2019-05-09T10:45:42.452Z,19.80
2019-05-09T10:50:54.162Z,19.80
2019-05-09T10:55:55.777Z,19.90
2019-05-09T11:01:01.341Z,19.90
2019-05-09T11:06:08.549Z,20.10
2019-05-09T11:11:14.474Z,20.50
2019-05-09T11:16:20.362Z,21.00
2019-05-09T11:21:28.661Z,21.50
2019-05-09T11:26:34.237Z,22.00
2019-05-09T11:31:39.989Z,22.50
2019-05-09T11:36:45.678Z,22.90
2019-05-09T11:41:51.350Z,23.20
2019-05-09T11:46:58.235Z,23.40
2019-05-09T11:52:05.256Z,23.50
2019-05-09T11:57:11.180Z,23.50
2019-05-09T12:02:18.064Z,23.60
2019-05-09T12:07:25.338Z,23.70
2019-05-09T12:12:30.921Z,23.90
2019-05-09T12:17:52.951Z,24.00
2019-05-09T12:22:44.061Z,24.10
2019-05-09T12:27:49.769Z,24.10
2019-05-09T12:32:55.850Z,24.20
2019-05-09T12:38:01.444Z,24.30
2019-05-09T12:43:09.088Z,24.30
2019-05-09T12:48:15.831Z,24.30
2019-05-09T12:53:21.701Z,24.30
2019-05-09T12:58:27.964Z,24.30
2019-05-09T13:03:34.152Z,24.30
2019-05-09T13:08:39.695Z,24.40
2019-05-09T13:13:47.839Z,24.40
2019-05-09T13:19:06.863Z,24.50
2019-05-09T13:24:12.685Z,24.60
2019-05-09T13:29:18.472Z,24.60
2019-05-09T13:34:24.122Z,24.70
2019-05-09T13:39:29.912Z,24.60
2019-05-09T13:44:40.631Z,24.70
2019-05-09T13:49:42.908Z,24.70
2019-05-09T13:54:48.651Z,24.60
2019-05-09T13:59:54.037Z,24.60
2019-05-09T14:04:59.791Z,24.60
2019-05-09T14:10:08.966Z,24.60
2019-05-09T14:15:13.842Z,24.60
2019-05-09T14:20:19.570Z,24.50
2019-05-09T14:25:25.076Z,24.40
2019-05-09T14:30:30.660Z,24.40
2019-05-09T14:35:38.515Z,24.40
2019-05-09T14:40:44.741Z,24.40
2019-05-09T14:45:50.410Z,24.40
2019-05-09T14:50:58.195Z,24.30
2019-05-09T14:56:03.362Z,24.30
2019-05-09T15:01:09.477Z,24.30
2019-05-09T15:06:17.975Z,24.30
2019-05-09T15:11:22.822Z,24.30
2019-05-09T15:16:28.480Z,24.30
2019-05-09T15:21:34.403Z,24.30
2019-05-09T15:26:40.012Z,24.30
2019-05-09T15:31:53.130Z,24.20
2019-05-09T15:36:53.050Z,24.20
2019-05-09T15:41:58.653Z,24.20
2019-05-09T15:47:18.382Z,24.20
2019-05-09T15:52:25.003Z,24.10
2019-05-09T15:57:30.833Z,24.10
2019-05-09T16:02:39.071Z,24.10
2019-05-09T16:07:43.888Z,24.00
2019-05-09T16:12:49.692Z,24.00
2019-05-09T16:17:55.264Z,23.90
2019-05-09T16:23:00.993Z,23.90
2019-05-09T16:28:08.203Z,23.90
2019-05-09T16:33:14.410Z,23.80
2019-05-09T16:38:20.194Z,23.80
2019-05-09T16:43:26.044Z,23.80
2019-05-09T16:48:31.648Z,23.70
2019-05-09T16:53:37.396Z,23.70
2019-05-09T16:58:43.433Z,23.70
2019-05-09T17:03:49.100Z,23.70
2019-05-09T17:08:54.703Z,23.60
2019-05-09T17:14:00.502Z,23.60
2019-05-09T17:19:06.161Z,23.60
2019-05-09T17:24:15.017Z,23.50
2019-05-09T17:29:20.803Z,23.50
2019-05-09T17:34:28.676Z,23.50
2019-05-09T17:39:33.632Z,23.50
2019-05-09T17:44:40.216Z,23.40
2019-05-09T17:49:48.074Z,23.30
2019-05-09T17:54:55.579Z,23.30
2019-05-09T18:00:01.681Z,23.20
2019-05-09T18:05:07.856Z,23.20
2019-05-09T18:10:15.033Z,23.20
2019-05-09T18:15:21.514Z,23.10
2019-05-09T18:20:28.340Z,23.10
2019-05-09T18:25:34.510Z,23.00
2019-05-09T18:30:40.383Z,22.90
2019-05-09T18:35:47.750Z,22.90
2019-05-09T18:40:53.893Z,22.80
2019-05-09T18:45:59.946Z,22.80
2019-05-09T18:51:07.330Z,22.70
2019-05-09T18:56:13.250Z,22.70
2019-05-09T19:01:19.281Z,22.60
2019-05-09T19:06:25.196Z,22.60
2019-05-09T19:11:31.260Z,22.50
2019-05-09T19:16:46.238Z,22.50
2019-05-09T19:21:58.444Z,22.40
2019-05-09T19:27:05.563Z,22.40
2019-05-09T19:32:11.392Z,22.30
2019-05-09T19:37:17.281Z,22.30
2019-05-09T19:42:24.118Z,22.20
2019-05-09T19:47:30.178Z,22.10
2019-05-09T19:52:38.422Z,22.00
2019-05-09T19:57:43.745Z,22.10
2019-05-09T20:02:49.664Z,21.90
2019-05-09T20:07:55.558Z,21.90
2019-05-09T20:13:30.942Z,21.80
2019-05-09T20:18:37.109Z,21.80
2019-05-09T20:23:43.185Z,21.70
2019-05-09T20:28:49.045Z,21.60
2019-05-09T20:33:54.815Z,21.60
2019-05-09T20:39:01.064Z,21.60
2019-05-09T20:44:08.894Z,21.50
2019-05-09T20:49:15.868Z,21.40
2019-05-09T20:54:22.069Z,21.40
2019-05-09T20:59:28.993Z,21.30
2019-05-09T21:04:36.534Z,21.20
2019-05-09T21:09:44.996Z,21.20
2019-05-09T21:14:51.334Z,21.10
2019-05-09T21:19:59.626Z,21.00
2019-05-09T21:25:09.696Z,20.90
2019-05-09T21:30:17.842Z,20.90
2019-05-09T21:35:24.573Z,20.80
2019-05-09T21:40:30.261Z,20.80
2019-05-09T21:45:36.349Z,20.70
2019-05-09T21:50:43.549Z,20.70
2019-05-09T21:55:49.473Z,20.60
2019-05-09T22:00:57.062Z,20.60
2019-05-09T22:06:04.071Z,20.60
2019-05-09T22:11:09.725Z,20.50
2019-05-09T22:16:15.679Z,20.40
2019-05-09T22:21:24.357Z,20.40
2019-05-09T22:26:32.245Z,20.40
2019-05-09T22:31:38.141Z,20.30
2019-05-09T22:36:44.029Z,20.30
2019-05-09T22:41:49.686Z,20.30
2019-05-09T22:46:55.552Z,20.20
2019-05-09T22:52:02.750Z,20.20
2019-05-09T22:57:08.428Z,20.20
2019-05-09T23:02:13.968Z,20.20
2019-05-09T23:07:20.722Z,20.20
2019-05-09T23:12:26.545Z,20.20
2019-05-09T23:17:32.701Z,20.20
2019-05-09T23:22:38.430Z,20.20
2019-05-09T23:27:44.348Z,20.10
2019-05-09T23:32:50.032Z,20.10
2019-05-09T23:37:55.910Z,20.10
2019-05-09T23:43:01.786Z,20.20
2019-05-09T23:48:07.569Z,20.20
2019-05-09T23:53:15.123Z,20.20
2019-05-09T23:58:40.388Z,20.20
